Time;durP1;ratioP1;P1;durP2;ratioP2;P2;SDS_P1;SDS_P2;PMS_P1;PMS_P2;Temp;Humidity;BMP_temperature;BMP_pressure;BME280_temperature;BME280_humidity;BME280_pressure;Samples;Min_cycle;Max_cycle;Signal;HPM_P1;HPM_P2
2021/08/20 02:47:54;;;;;;;;;;;16.90;99.90;;;;;;5;36014796;39063084;-88
2021/08/20 02:51:07;;;;;;;;;;;16.90;99.90;;;;;;5;36014649;39017253;-88
2021/08/20 02:54:20;;;;;;;;;;;16.80;99.90;;;;;;5;36015428;39017419;-88
2021/08/20 02:57:30;;;;;;;;;;;16.80;99.90;;;;;;5;36016205;39015603;-87
2021/08/20 03:00:44;;;;;;;;;;;16.70;99.90;;;;;;5;36013378;39765722;-88
2021/08/20 03:03:56;;;;;;;;;;;16.50;99.90;;;;;;5;36013354;39015406;-87
2021/08/20 03:07:09;;;;;;;;;;;16.50;99.90;;;;;;5;36013819;39016673;-87
2021/08/20 03:10:19;;;;;;;;;;;16.50;99.90;;;;;;5;36013609;39016103;-87
2021/08/20 03:13:31;;;;;;;;;;;16.50;99.90;;;;;;5;36013159;39015373;-87
2021/08/20 03:16:44;;;;;;;;;;;16.40;99.90;;;;;;5;36014199;39016511;-88
2021/08/20 03:19:57;;;;;;;;;;;16.40;99.90;;;;;;5;36013847;39015644;-89
2021/08/20 03:23:07;;;;;;;;;;;16.30;99.90;;;;;;5;36013651;39016118;-88
2021/08/20 03:26:19;;;;;;;;;;;16.20;99.90;;;;;;5;36015008;39016170;-89
2021/08/20 03:29:32;;;;;;;;;;;16.20;99.90;;;;;;5;36014018;39015014;-89
2021/08/20 03:32:46;;;;;;;;;;;16.20;99.90;;;;;;5;36013395;39765523;-89
2021/08/20 03:35:56;;;;;;;;;;;16.20;99.90;;;;;;5;36014090;39016244;-90
2021/08/20 03:39:09;;;;;;;;;;;16.30;99.90;;;;;;5;36014429;39015604;-93
2021/08/20 03:42:21;;;;;;;;;;;16.30;99.90;;;;;;5;36014031;39016485;-92
2021/08/20 03:45:34;;;;;;;;;;;16.40;99.90;;;;;;5;36014121;39015947;-89
2021/08/20 03:48:44;;;;;;;;;;;16.40;99.90;;;;;;5;36014272;39016362;-90
2021/08/20 03:51:57;;;;;;;;;;;16.40;99.90;;;;;;5;36014902;39016040;-92
2021/08/20 03:55:10;;;;;;;;;;;16.30;99.90;;;;;;5;36014759;39015537;-93
2021/08/20 03:58:22;;;;;;;;;;;16.30;99.90;;;;;;5;36014033;39017197;-90
2021/08/20 04:01:32;;;;;;;;;;;16.30;99.90;;;;;;5;36014165;39015425;-89
2021/08/20 04:04:46;;;;;;;;;;;16.30;99.90;;;;;;5;36015273;39767789;-89
2021/08/20 04:07:59;;;;;;;;;;;16.30;99.90;;;;;;5;36013498;39015981;-90
2021/08/20 04:11:12;;;;;;;;;;;16.40;99.90;;;;;;5;36014048;39015630;-91
2021/08/20 04:14:21;;;;;;;;;;;16.40;99.90;;;;;;5;36014601;39015480;-90
2021/08/20 04:17:34;;;;;;;;;;;16.40;99.90;;;;;;5;36013637;39015752;-90
2021/08/20 04:20:47;;;;;;;;;;;16.30;99.90;;;;;;5;36013709;39015375;-90
2021/08/20 04:23:59;;;;;;;;;;;16.20;99.90;;;;;;5;36014418;39015504;-90
2021/08/20 04:27:09;;;;;;;;;;;16.20;99.90;;;;;;5;36013523;39016459;-90
2021/08/20 04:30:22;;;;;;;;;;;16.20;99.90;;;;;;5;36013738;39016024;-90
2021/08/20 04:33:35;;;;;;;;;;;16.10;99.90;;;;;;5;36013365;39016563;-90
2021/08/20 04:36:49;;;;;;;;;;;16.10;99.90;;;;;;5;36014838;39765164;-90
2021/08/20 04:39:59;;;;;;;;;;;16.10;99.90;;;;;;5;36013228;39016153;-90
2021/08/20 04:43:11;;;;;;;;;;;16.10;99.90;;;;;;5;36013177;39015375;-90
2021/08/20 04:46:24;;;;;;;;;;;16.20;99.90;;;;;;5;36014345;39017167;-90
2021/08/20 04:49:37;;;;;;;;;;;16.30;99.90;;;;;;5;36014216;39015980;-90
2021/08/20 04:52:47;;;;;;;;;;;16.30;99.90;;;;;;5;36013387;39016680;-90
2021/08/20 04:55:59;;;;;;;;;;;16.30;99.90;;;;;;5;36013426;39017202;-90
2021/08/20 04:59:12;;;;;;;;;;;16.30;99.90;;;;;;5;36015199;39015841;-89
2021/08/20 05:02:27;;;;;;;;;;;16.30;99.90;;;;;;5;36014974;39015689;-90
2021/08/20 05:05:36;;;;;;;;;;;16.30;99.90;;;;;;5;36013402;39015808;-90
2021/08/20 05:08:50;;;;;;;;;;;16.40;99.90;;;;;;5;36014942;39766256;-90
2021/08/20 05:12:05;;;;;;;;;;;16.40;99.90;;;;;;5;36013304;39016243;-91
2021/08/20 05:15:18;;;;;;;;;;;16.40;99.90;;;;;;5;36014268;39015415;-89
2021/08/20 05:18:27;;;;;;;;;;;16.40;99.90;;;;;;5;36013758;39017330;-91
2021/08/20 05:21:40;;;;;;;;;;;16.40;99.90;;;;;;5;36014209;39015762;-91
2021/08/20 05:24:53;;;;;;;;;;;16.40;99.90;;;;;;5;36013044;39016725;-91
2021/08/20 05:28:06;;;;;;;;;;;16.40;99.90;;;;;;5;36014078;39016008;-90
2021/08/20 05:31:15;;;;;;;;;;;16.50;99.90;;;;;;5;36013647;39015727;-91
2021/08/20 05:34:28;;;;;;;;;;;16.50;99.90;;;;;;5;36014187;39016157;-91
2021/08/20 05:37:41;;;;;;;;;;;16.60;99.90;;;;;;5;36013122;39015891;-91
2021/08/20 05:40:55;;;;;;;;;;;16.80;99.90;;;;;;5;36013801;39766597;-91
2021/08/20 05:44:05;;;;;;;;;;;16.90;99.90;;;;;;5;36016082;39015247;-91
2021/08/20 05:47:17;;;;;;;;;;;17.10;99.90;;;;;;5;36013030;39015652;-91
2021/08/20 05:50:30;;;;;;;;;;;17.30;99.90;;;;;;5;36014226;39016051;-91
2021/08/20 05:53:43;;;;;;;;;;;17.40;99.90;;;;;;5;36013107;39016161;-91
2021/08/20 05:56:52;;;;;;;;;;;17.50;99.90;;;;;;5;36014113;39015516;-90
2021/08/20 06:00:06;;;;;;;;;;;17.60;99.90;;;;;;5;36013317;39015804;-90
2021/08/20 06:03:20;;;;;;;;;;;17.70;99.90;;;;;;5;36015872;39017150;-91
2021/08/20 06:06:36;;;;;;;;;;;17.80;99.90;;;;;;5;36014137;39018003;-91
2021/08/20 06:09:45;;;;;;;;;;;17.90;99.90;;;;;;5;36015316;39015770;-91
2021/08/20 06:12:59;;;;;;;;;;;18.10;99.90;;;;;;5;36015241;39766282;-91
2021/08/20 06:16:12;;;;;;;;;;;18.20;99.90;;;;;;5;36013721;39016210;-89
2021/08/20 06:19:25;;;;;;;;;;;18.50;99.90;;;;;;5;36015045;39015047;-88
2021/08/20 06:22:35;;;;;;;;;;;18.60;99.90;;;;;;5;36015069;39016092;-88
2021/08/20 06:25:47;;;;;;;;;;;18.80;99.90;;;;;;5;36013639;39016492;-89
2021/08/20 06:29:00;;;;;;;;;;;19.00;99.90;;;;;;5;36014152;39015890;-89
2021/08/20 06:32:13;;;;;;;;;;;19.20;99.90;;;;;;5;36013987;39015686;-87
2021/08/20 06:35:22;;;;;;;;;;;19.50;99.90;;;;;;5;36015087;39015561;-88
2021/08/20 06:38:35;;;;;;;;;;;19.80;99.90;;;;;;5;36012937;39016626;-90
2021/08/20 06:41:48;;;;;;;;;;;20.00;99.90;;;;;;5;36013459;39016327;-88
2021/08/20 06:45:02;;;;;;;;;;;20.30;99.90;;;;;;5;36013798;39765437;-87
2021/08/20 06:48:12;;;;;;;;;;;20.60;99.10;;;;;;5;36013694;39016476;-86
2021/08/20 06:51:24;;;;;;;;;;;21.00;98.20;;;;;;5;36013931;39016406;-86
2021/08/20 06:54:37;;;;;;;;;;;21.10;97.90;;;;;;5;36014272;39015818;-85
2021/08/20 06:57:50;;;;;;;;;;;21.30;97.40;;;;;;5;36015442;39015676;-87
2021/08/20 07:00:59;;;;;;;;;;;21.50;97.00;;;;;;5;36013815;39015971;-86
2021/08/20 07:04:12;;;;;;;;;;;21.70;96.10;;;;;;5;36014316;39016327;-88
2021/08/20 07:07:27;;;;;;;;;;;21.70;95.70;;;;;;5;36013833;39016054;-86
2021/08/20 07:10:40;;;;;;;;;;;21.70;95.90;;;;;;5;36013401;39017114;-88
2021/08/20 07:13:50;;;;;;;;;;;21.80;95.30;;;;;;5;36014194;39015871;-87
2021/08/20 07:17:04;;;;;;;;;;;21.90;94.60;;;;;;5;36016080;39766079;-87
2021/08/20 07:20:16;;;;;;;;;;;21.90;94.10;;;;;;5;36014716;39015225;-87
2021/08/20 07:23:30;;;;;;;;;;;22.10;93.80;;;;;;5;36013271;39016094;-85
2021/08/20 07:26:39;;;;;;;;;;;22.20;93.50;;;;;;5;36013936;39015973;-87
2021/08/20 07:29:52;;;;;;;;;;;22.40;93.20;;;;;;5;36013650;39016331;-90
2021/08/20 07:33:05;;;;;;;;;;;22.70;92.40;;;;;;5;36014650;39016374;-88
2021/08/20 07:36:17;;;;;;;;;;;22.90;91.50;;;;;;5;36013651;39016299;-87
2021/08/20 07:39:27;;;;;;;;;;;23.30;90.40;;;;;;5;36016007;39015508;-87
2021/08/20 07:42:40;;;;;;;;;;;24.00;88.30;;;;;;5;36013453;39015913;-87
2021/08/20 07:45:52;;;;;;;;;;;24.30;87.60;;;;;;5;36015101;39015612;-87
2021/08/20 07:49:07;;;;;;;;;;;24.50;86.20;;;;;;5;36014592;39765345;-86
2021/08/20 07:52:16;;;;;;;;;;;25.00;84.90;;;;;;5;36013798;39016690;-86
2021/08/20 07:55:29;;;;;;;;;;;27.00;79.10;;;;;;5;36013303;39016960;-87
2021/08/20 07:58:42;;;;;;;;;;;29.00;70.40;;;;;;5;36014348;39015730;-86
2021/08/20 08:01:54;;;;;;;;;;;29.90;64.00;;;;;;5;36013812;39017627;-86
2021/08/20 08:05:04;;;;;;;;;;;29.70;64.20;;;;;;5;36014421;39015829;-87
2021/08/20 08:08:17;;;;;;;;;;;28.90;65.20;;;;;;5;36014850;39016938;-87
2021/08/20 08:11:31;;;;;;;;;;;28.30;66.80;;;;;;5;36013548;39016328;-87
2021/08/20 08:14:44;;;;;;;;;;;27.90;67.80;;;;;;5;36014199;39015444;-87
2021/08/20 08:17:55;;;;;;;;;;;29.40;66.00;;;;;;5;36014254;39015401;-87
2021/08/20 08:21:09;;;;;;;;;;;31.60;61.50;;;;;;5;36013103;39766615;-86
2021/08/20 08:24:22;;;;;;;;;;;32.50;57.00;;;;;;5;36013875;39017777;-87
2021/08/20 08:27:48;;;;;;;;;;;34.30;55.10;;;;;;5;36014418;39015323;-88
2021/08/20 08:31:02;;;;;;;;;;;36.00;50.70;;;;;;5;36013736;39016466;-87
2021/08/20 08:34:14;;;;;;;;;;;37.80;47.90;;;;;;5;36013322;39016423;-87
2021/08/20 08:37:27;;;;;;;;;;;39.30;45.60;;;;;;5;36013202;39015656;-87
2021/08/20 08:40:44;;;;;;;;;;;39.10;43.60;;;;;;5;36013719;39016696;-87
2021/08/20 08:43:54;;;;;;;;;;;37.40;45.10;;;;;;5;36014724;39016363;-87
2021/08/20 08:47:07;;;;;;;;;;;37.70;44.50;;;;;;5;36013635;39016322;-87
2021/08/20 08:50:19;;;;;;;;;;;39.10;44.30;;;;;;5;36013895;39016574;-87
2021/08/20 08:53:34;;;;;;;;;;;40.30;42.20;;;;;;5;36015685;39765040;-87
2021/08/20 08:56:44;;;;;;;;;;;41.20;40.70;;;;;;5;36014442;39015436;-87
2021/08/20 08:59:57;;;;;;;;;;;42.20;39.30;;;;;;5;36013635;39016048;-87
2021/08/20 09:03:21;;;;;;;;;;;42.80;38.50;;;;;;5;36013677;39016580;-87
2021/08/20 09:07:00;;;;;;;;;;;42.90;38.10;;;;;;5;36014511;39016475;-87
2021/08/20 09:10:20;;;;;;;;;;;42.20;38.90;;;;;;5;36013600;39016353;-88
2021/08/20 09:13:37;;;;;;;;;;;42.50;38.40;;;;;;5;36013060;39016345;-87
2021/08/20 09:16:54;;;;;;;;;;;43.40;37.40;;;;;;5;36013572;39016284;-87
2021/08/20 09:20:23;;;;;;;;;;;43.70;36.70;;;;;;5;36013480;39015534;-87
2021/08/20 09:23:33;;;;;;;;;;;43.70;37.00;;;;;;5;36014473;39016172;-88
2021/08/20 09:26:47;;;;;;;;;;;44.10;36.10;;;;;;5;36013417;39766060;-87
2021/08/20 09:30:08;;;;;;;;;;;44.70;34.90;;;;;;5;36013653;39016242;-88
2021/08/20 09:33:31;;;;;;;;;;;45.10;34.60;;;;;;5;36014963;39016213;-88
2021/08/20 09:36:41;;;;;;;;;;;45.40;34.20;;;;;;5;36014749;39015459;-87
2021/08/20 09:39:59;;;;;;;;;;;46.00;34.00;;;;;;5;36014039;39015487;-86
2021/08/20 09:43:20;;;;;;;;;;;45.60;33.90;;;;;;5;36014953;39015597;-87
2021/08/20 09:46:42;;;;;;;;;;;45.40;33.50;;;;;;5;36014895;39015343;-87
2021/08/20 09:49:58;;;;;;;;;;;45.80;33.30;;;;;;5;36014595;39015555;-87
2021/08/20 09:53:12;;;;;;;;;;;45.40;33.20;;;;;;5;36013778;39016200;-87
2021/08/20 09:56:25;;;;;;;;;;;45.60;33.20;;;;;;5;36013299;39016099;-87
2021/08/20 09:59:39;;;;;;;;;;;46.00;32.70;;;;;;5;36013888;39764999;-87
2021/08/20 10:02:49;;;;;;;;;;;45.80;32.80;;;;;;5;36013398;39019796;-87
2021/08/20 10:06:03;;;;;;;;;;;46.10;32.70;;;;;;5;36013134;39016221;-87
2021/08/20 10:09:17;;;;;;;;;;;46.20;33.10;;;;;;5;36013657;39015936;-87
2021/08/20 10:12:30;;;;;;;;;;;46.50;32.40;;;;;;5;36014243;39015597;-83
2021/08/20 10:15:39;;;;;;;;;;;46.00;32.20;;;;;;5;36016570;39017395;-89
2021/08/20 10:18:52;;;;;;;;;;;45.70;32.30;;;;;;5;36013529;39019135;-89
2021/08/20 10:22:05;;;;;;;;;;;46.30;31.80;;;;;;5;36015297;39015781;-92
2021/08/20 10:25:18;;;;;;;;;;;46.80;31.30;;;;;;5;36014007;39015366;-86
2021/08/20 10:28:28;;;;;;;;;;;46.70;31.90;;;;;;5;36014100;39015159;-86
2021/08/20 10:31:43;;;;;;;;;;;46.90;32.30;;;;;;5;36013391;39766101;-86
2021/08/20 10:34:56;;;;;;;;;;;46.80;31.80;;;;;;5;36014733;39015072;-86
2021/08/20 10:38:25;;;;;;;;;;;47.10;31.40;;;;;;5;36012808;39018341;-87
2021/08/20 10:41:35;;;;;;;;;;;46.80;31.10;;;;;;5;36014066;39017113;-86
2021/08/20 10:44:51;;;;;;;;;;;46.70;31.40;;;;;;5;36014067;39015820;-85
2021/08/20 10:48:12;;;;;;;;;;;46.50;31.30;;;;;;5;36013776;39015639;-86
2021/08/20 10:51:44;;;;;;;;;;;46.80;31.70;;;;;;5;36013943;39016124;-85
2021/08/20 10:54:53;;;;;;;;;;;47.20;30.80;;;;;;5;36014016;39016414;-85
2021/08/20 10:58:07;;;;;;;;;;;47.20;30.70;;;;;;5;36013871;39015798;-86
2021/08/20 11:01:21;;;;;;;;;;;46.70;30.30;;;;;;5;36013543;39015780;-88
2021/08/20 11:05:01;;;;;;;;;;;45.90;30.60;;;;;;5;36012997;39765336;-89
2021/08/20 11:08:26;;;;;;;;;;;45.70;30.70;;;;;;5;36014504;39015745;-88
2021/08/20 11:11:40;;;;;;;;;;;46.20;31.30;;;;;;5;36012260;39014897;-91
2021/08/20 11:14:53;;;;;;;;;;;46.50;30.40;;;;;;5;36012928;39015261;-92
2021/08/20 11:18:06;;;;;;;;;;;46.20;30.10;;;;;;5;36012883;39015878;-91
2021/08/20 11:21:34;;;;;;;;;;;46.30;30.50;;;;;;5;36013650;39016666;-93
2021/08/20 11:25:20;;;;;;;;;;;46.50;30.40;;;;;;5;36014290;39016276;-89
2021/08/20 11:28:42;;;;;;;;;;;46.80;30.80;;;;;;5;36014503;39016905;-90
2021/08/20 11:32:03;;;;;;;;;;;47.30;30.70;;;;;;5;36014290;39015214;-90
2021/08/20 11:35:25;;;;;;;;;;;47.30;29.90;;;;;;5;36013243;39016061;-90
2021/08/20 11:38:42;;;;;;;;;;;46.80;30.60;;;;;;5;36012778;39766471;-90
2021/08/20 11:42:07;;;;;;;;;;;46.90;31.00;;;;;;5;36016003;39015934;-90
2021/08/20 11:45:21;;;;;;;;;;;47.00;29.60;;;;;;5;36014682;39016032;-90
2021/08/20 11:48:39;;;;;;;;;;;47.10;30.50;;;;;;5;36013762;39015442;-90
2021/08/20 11:51:52;;;;;;;;;;;46.70;30.30;;;;;;5;36014969;39015840;-90
2021/08/20 11:55:45;;;;;;;;;;;46.50;30.50;;;;;;5;36014474;39015773;-90
2021/08/20 11:59:06;;;;;;;;;;;46.40;30.30;;;;;;5;36014057;39017001;-90
2021/08/20 12:02:18;;;;;;;;;;;46.70;30.80;;;;;;5;36013842;39016353;-90
2021/08/20 12:05:30;;;;;;;;;;;47.10;30.40;;;;;;5;36014517;39017191;-90
2021/08/20 12:08:44;;;;;;;;;;;47.00;31.00;;;;;;5;36014804;39016188;-90
2021/08/20 12:11:58;;;;;;;;;;;47.00;30.70;;;;;;5;36014566;39765797;-90
2021/08/20 12:15:08;;;;;;;;;;;46.90;30.50;;;;;;5;36014227;39015544;-89
2021/08/20 12:18:28;;;;;;;;;;;46.80;29.70;;;;;;5;36013952;39016706;-91
2021/08/20 12:21:44;;;;;;;;;;;46.80;30.60;;;;;;5;36013810;39016198;-90
2021/08/20 12:24:56;;;;;;;;;;;46.80;30.30;;;;;;5;36013057;39016694;-90
2021/08/20 12:28:11;;;;;;;;;;;46.50;30.60;;;;;;5;36014687;39015929;-91
2021/08/20 12:31:25;;;;;;;;;;;46.60;30.40;;;;;;5;36013893;39016428;-89
2021/08/20 12:34:37;;;;;;;;;;;46.40;31.20;;;;;;5;36014414;39015674;-91
2021/08/20 12:38:00;;;;;;;;;;;46.10;30.40;;;;;;5;36013110;39016089;-93
2021/08/20 12:41:10;;;;;;;;;;;45.80;31.00;;;;;;5;36013809;39016200;-91
2021/08/20 12:44:31;;;;;;;;;;;45.70;30.40;;;;;;5;36013035;39766434;-92
2021/08/20 12:48:01;;;;;;;;;;;45.70;30.60;;;;;;5;36014759;39015280;-92
2021/08/20 12:51:15;;;;;;;;;;;45.50;30.10;;;;;;5;36013270;39016141;-92
2021/08/20 12:54:31;;;;;;;;;;;44.90;30.80;;;;;;5;36013630;39016037;-91
2021/08/20 12:57:49;;;;;;;;;;;44.80;30.80;;;;;;5;36012852;39016165;-91
2021/08/20 13:01:03;;;;;;;;;;;44.70;30.10;;;;;;5;36013999;39015641;-91
2021/08/20 13:04:16;;;;;;;;;;;44.40;30.90;;;;;;5;36013877;39015629;-90
2021/08/20 13:07:25;;;;;;;;;;;44.30;30.90;;;;;;5;36013283;39017338;-90
2021/08/20 13:10:38;;;;;;;;;;;43.90;30.30;;;;;;5;36012904;39015942;-93
2021/08/20 13:13:51;;;;;;;;;;;43.40;31.10;;;;;;5;36014357;39015860;-89
2021/08/20 13:17:05;;;;;;;;;;;42.90;31.20;;;;;;5;36014592;39767330;-89
2021/08/20 13:20:14;;;;;;;;;;;42.60;31.30;;;;;;5;36014796;39016341;-87
2021/08/20 13:23:27;;;;;;;;;;;42.20;32.80;;;;;;5;36014596;39016459;-88
2021/08/20 13:26:40;;;;;;;;;;;41.90;31.00;;;;;;5;36013830;39016257;-88
2021/08/20 13:30:21;;;;;;;;;;;41.80;31.50;;;;;;5;36013709;39015444;-88
2021/08/20 13:33:35;;;;;;;;;;;41.70;31.30;;;;;;5;36013028;39014966;-88
2021/08/20 13:36:57;;;;;;;;;;;41.40;31.80;;;;;;5;36013803;39015135;-88
2021/08/20 13:40:10;;;;;;;;;;;41.50;31.40;;;;;;5;36013490;39015674;-88
2021/08/20 13:43:22;;;;;;;;;;;41.60;31.50;;;;;;5;36013272;39017101;-88
2021/08/20 13:46:35;;;;;;;;;;;41.70;31.50;;;;;;5;36014977;39015806;-88
2021/08/20 13:49:50;;;;;;;;;;;41.30;31.70;;;;;;5;36013603;39765371;-88
2021/08/20 13:53:03;;;;;;;;;;;41.10;31.40;;;;;;5;36015342;39015952;-88
2021/08/20 13:56:16;;;;;;;;;;;40.80;31.90;;;;;;5;36014097;39015691;-88
2021/08/20 13:59:25;;;;;;;;;;;40.40;32.40;;;;;;5;36014560;39015989;-88
2021/08/20 14:02:38;;;;;;;;;;;40.30;32.30;;;;;;5;36014752;39016396;-88
2021/08/20 14:05:51;;;;;;;;;;;40.00;33.10;;;;;;5;36014050;39015648;-88
2021/08/20 14:09:06;;;;;;;;;;;40.10;33.70;;;;;;5;36015035;39016358;-88
2021/08/20 14:12:15;;;;;;;;;;;39.90;33.00;;;;;;5;36013864;39016381;-88
2021/08/20 14:15:28;;;;;;;;;;;39.70;32.20;;;;;;5;36013486;39016200;-88
2021/08/20 14:18:41;;;;;;;;;;;39.40;33.40;;;;;;5;36014278;39015265;-87
2021/08/20 14:21:55;;;;;;;;;;;39.30;33.50;;;;;;5;36013318;39767448;-87
2021/08/20 14:25:05;;;;;;;;;;;39.00;33.70;;;;;;5;36014629;39015663;-87
2021/08/20 14:28:18;;;;;;;;;;;38.80;33.50;;;;;;5;36014993;39015626;-87
2021/08/20 14:31:31;;;;;;;;;;;38.60;34.10;;;;;;5;36013130;39015831;-87
2021/08/20 14:34:43;;;;;;;;;;;38.20;34.60;;;;;;5;36014331;39016227;-87
2021/08/20 14:37:53;;;;;;;;;;;38.00;35.00;;;;;;5;36014756;39018462;-87
2021/08/20 14:41:06;;;;;;;;;;;37.50;34.70;;;;;;5;36014885;39017374;-87
2021/08/20 14:44:18;;;;;;;;;;;37.30;35.80;;;;;;5;36012953;39016274;-87
2021/08/20 14:47:31;;;;;;;;;;;37.00;36.20;;;;;;5;36014358;39015627;-87
2021/08/20 14:50:41;;;;;;;;;;;36.40;35.80;;;;;;5;36014349;39016047;-87
2021/08/20 14:53:55;;;;;;;;;;;36.10;36.30;;;;;;5;36013748;39766187;-87
2021/08/20 14:57:08;;;;;;;;;;;35.90;36.40;;;;;;5;36015107;39015648;-87
2021/08/20 15:00:20;;;;;;;;;;;35.60;37.50;;;;;;5;36013912;39016313;-87
2021/08/20 15:03:31;;;;;;;;;;;35.10;36.80;;;;;;5;36015432;39016039;-88
2021/08/20 15:06:44;;;;;;;;;;;34.50;38.30;;;;;;5;36013258;39016509;-87
2021/08/20 15:09:57;;;;;;;;;;;34.20;38.50;;;;;;5;36014201;39015832;-88
2021/08/20 15:13:10;;;;;;;;;;;34.00;39.50;;;;;;5;36014473;39015713;-88
2021/08/20 15:16:20;;;;;;;;;;;33.90;39.30;;;;;;5;36014117;39016228;-88
2021/08/20 15:19:33;;;;;;;;;;;33.50;39.80;;;;;;5;36015709;39016749;-87
2021/08/20 15:22:45;;;;;;;;;;;33.30;39.50;;;;;;5;36016008;39015654;-88
2021/08/20 15:26:00;;;;;;;;;;;32.90;39.60;;;;;;5;36013629;39766173;-87
2021/08/20 15:29:09;;;;;;;;;;;32.50;40.50;;;;;;5;36013513;39017521;-87
2021/08/20 15:32:22;;;;;;;;;;;32.30;40.50;;;;;;5;36013217;39015861;-86
2021/08/20 15:35:35;;;;;;;;;;;32.20;40.80;;;;;;5;36013601;39016208;-87
2021/08/20 15:38:47;;;;;;;;;;;31.90;41.80;;;;;;5;36014249;39015790;-87
2021/08/20 15:41:57;;;;;;;;;;;31.70;41.20;;;;;;5;36014480;39016504;-86
2021/08/20 15:45:10;;;;;;;;;;;31.30;42.00;;;;;;5;36014484;39015911;-88
2021/08/20 15:48:23;;;;;;;;;;;30.90;43.20;;;;;;5;36014252;39016164;-88
2021/08/20 15:51:36;;;;;;;;;;;30.70;43.40;;;;;;5;36013500;39016501;-87
2021/08/20 15:54:49;;;;;;;;;;;30.50;42.30;;;;;;5;36014367;39017471;-87
2021/08/20 15:58:03;;;;;;;;;;;30.30;43.60;;;;;;5;36014519;39765629;-88
2021/08/20 16:01:16;;;;;;;;;;;30.00;43.70;;;;;;5;36014190;39015247;-87
2021/08/20 16:04:29;;;;;;;;;;;29.80;44.50;;;;;;5;36013541;39017638;-87
2021/08/20 16:07:39;;;;;;;;;;;29.60;44.60;;;;;;5;36014260;39016649;-87
2021/08/20 16:10:52;;;;;;;;;;;29.40;46.00;;;;;;5;36014844;39016468;-88
2021/08/20 16:14:05;;;;;;;;;;;29.20;45.30;;;;;;5;36014394;39016189;-87
2021/08/20 16:17:18;;;;;;;;;;;29.00;45.60;;;;;;5;36014921;39015112;-87
2021/08/20 16:20:27;;;;;;;;;;;28.90;45.90;;;;;;5;36014100;39015669;-87
2021/08/20 16:23:40;;;;;;;;;;;28.80;46.40;;;;;;5;36014350;39017177;-87
2021/08/20 16:26:53;;;;;;;;;;;28.60;46.20;;;;;;5;36014436;39015473;-87
2021/08/20 16:30:07;;;;;;;;;;;28.60;47.60;;;;;;5;36014846;39765077;-87
2021/08/20 16:33:17;;;;;;;;;;;28.50;47.50;;;;;;5;36014538;39015406;-87
2021/08/20 16:36:30;;;;;;;;;;;28.40;48.70;;;;;;5;36013441;39016608;-86
2021/08/20 16:39:43;;;;;;;;;;;28.30;48.40;;;;;;5;36013088;39016329;-87
2021/08/20 16:42:56;;;;;;;;;;;28.10;49.40;;;;;;5;36013192;39016245;-86
2021/08/20 16:46:05;;;;;;;;;;;28.00;48.60;;;;;;5;36013656;39015851;-86
2021/08/20 16:49:18;;;;;;;;;;;27.80;48.80;;;;;;5;36013482;39016742;-86
2021/08/20 16:52:31;;;;;;;;;;;27.60;50.00;;;;;;5;36014698;39015824;-85
2021/08/20 16:55:44;;;;;;;;;;;27.50;50.50;;;;;;5;36013753;39016180;-87
2021/08/20 16:58:53;;;;;;;;;;;27.30;51.00;;;;;;5;36015212;39015782;-87
2021/08/20 17:02:07;;;;;;;;;;;27.10;51.20;;;;;;5;36014330;39765503;-87
2021/08/20 17:05:20;;;;;;;;;;;26.90;51.80;;;;;;5;36014102;39016074;-87
2021/08/20 17:08:34;;;;;;;;;;;26.70;51.50;;;;;;5;36014162;39016206;-87
2021/08/20 17:11:44;;;;;;;;;;;26.60;52.20;;;;;;5;36013844;39016215;-87
2021/08/20 17:14:56;;;;;;;;;;;26.50;52.00;;;;;;5;36013325;39015126;-87
2021/08/20 17:18:13;;;;;;;;;;;26.40;52.40;;;;;;5;36015705;39016671;-88
2021/08/20 17:21:26;;;;;;;;;;;26.20;53.20;;;;;;5;36013974;39015748;-87
2021/08/20 17:24:36;;;;;;;;;;;26.10;53.50;;;;;;5;36013566;39016727;-87
2021/08/20 17:27:49;;;;;;;;;;;25.90;52.90;;;;;;5;36014536;39016656;-86
2021/08/20 17:31:03;;;;;;;;;;;25.60;54.10;;;;;;5;36014014;39015045;-87
2021/08/20 17:34:17;;;;;;;;;;;25.50;54.50;;;;;;5;36015000;39764927;-87
2021/08/20 17:37:27;;;;;;;;;;;25.30;54.50;;;;;;5;36013565;39016539;-87
2021/08/20 17:40:39;;;;;;;;;;;25.10;55.40;;;;;;5;36014592;39015798;-87
2021/08/20 17:43:52;;;;;;;;;;;24.90;57.40;;;;;;5;36014686;39015921;-86
2021/08/20 17:47:05;;;;;;;;;;;24.60;59.30;;;;;;5;36013680;39015865;-88
2021/08/20 17:50:15;;;;;;;;;;;24.40;61.00;;;;;;5;36014166;39015736;-88
2021/08/20 17:53:28;;;;;;;;;;;24.20;62.20;;;;;;5;36014133;39015800;-86
2021/08/20 17:56:41;;;;;;;;;;;24.00;62.90;;;;;;5;36013903;39016027;-87
2021/08/20 17:59:53;;;;;;;;;;;23.80;63.30;;;;;;5;36015015;39015773;-88
2021/08/20 18:03:03;;;;;;;;;;;23.60;63.90;;;;;;5;36013967;39015572;-88
2021/08/20 18:06:18;;;;;;;;;;;23.40;64.50;;;;;;5;36013610;39766401;-88
2021/08/20 18:09:33;;;;;;;;;;;23.20;65.00;;;;;;5;36013891;39016779;-88
2021/08/20 18:12:46;;;;;;;;;;;23.00;65.30;;;;;;5;36014317;39015461;-88
2021/08/20 18:15:55;;;;;;;;;;;22.80;66.40;;;;;;5;36014283;39016406;-88
2021/08/20 18:19:08;;;;;;;;;;;22.70;68.30;;;;;;5;36013837;39016080;-87
2021/08/20 18:22:21;;;;;;;;;;;22.50;67.50;;;;;;5;36012970;39017423;-87
2021/08/20 18:25:39;;;;;;;;;;;22.30;67.30;;;;;;5;36015953;41266196;-88
2021/08/20 18:28:54;;;;;;;;;;;22.20;67.20;;;;;;5;36013895;41270171;-88
2021/08/20 18:32:11;;;;;;;;;;;22.00;67.80;;;;;;5;36013965;41267047;-86
2021/08/20 18:35:31;;;;;;;;;;;21.90;70.30;;;;;;5;36015103;41265010;-87
2021/08/20 18:38:51;;;;;;;;;;;21.70;71.10;;;;;;5;36013442;42015876;-86
2021/08/20 18:42:05;;;;;;;;;;;21.50;71.00;;;;;;5;36013766;41268196;-88
2021/08/20 18:45:23;;;;;;;;;;;21.30;72.40;;;;;;5;36013649;41266924;-87
2021/08/20 18:48:42;;;;;;;;;;;21.20;73.00;;;;;;5;36014417;41266757;-89
2021/08/20 18:52:02;;;;;;;;;;;21.00;73.30;;;;;;5;36014372;41265685;-87
2021/08/20 18:55:16;;;;;;;;;;;21.00;73.90;;;;;;5;36014169;41267473;-87
2021/08/20 18:58:33;;;;;;;;;;;20.80;75.30;;;;;;5;36016714;41265796;-88
2021/08/20 19:01:53;;;;;;;;;;;20.70;75.20;;;;;;5;36013282;41266123;-87
2021/08/20 19:05:12;;;;;;;;;;;20.60;74.60;;;;;;5;36013470;41266680;-87
2021/08/20 19:08:26;;;;;;;;;;;20.50;76.80;;;;;;5;36014556;41266534;-87
2021/08/20 19:11:45;;;;;;;;;;;20.30;78.20;;;;;;5;36014503;42016981;-88
2021/08/20 19:15:06;;;;;;;;;;;20.20;78.00;;;;;;5;36014115;41266728;-87
2021/08/20 19:18:26;;;;;;;;;;;20.10;77.60;;;;;;5;36013406;41266905;-87
2021/08/20 19:21:40;;;;;;;;;;;20.00;79.00;;;;;;5;36013925;41266913;-87
2021/08/20 19:24:57;;;;;;;;;;;19.90;80.20;;;;;;5;36013167;41267326;-87
2021/08/20 19:28:17;;;;;;;;;;;19.80;81.60;;;;;;5;36014892;41266170;-87
2021/08/20 19:31:36;;;;;;;;;;;19.70;81.80;;;;;;5;36015780;41266018;-88
2021/08/20 19:34:50;;;;;;;;;;;19.60;82.60;;;;;;5;36013515;41267402;-87
2021/08/20 19:38:08;;;;;;;;;;;19.60;83.40;;;;;;5;36014213;41266548;-87
2021/08/20 19:41:27;;;;;;;;;;;19.50;84.90;;;;;;5;36013792;41266823;-87
2021/08/20 19:44:48;;;;;;;;;;;19.40;87.20;;;;;;5;36014534;42016712;-87
2021/08/20 19:48:03;;;;;;;;;;;19.30;87.10;;;;;;5;36014661;41266327;-87
2021/08/20 19:51:20;;;;;;;;;;;19.20;88.20;;;;;;5;36013716;41266584;-88
2021/08/20 19:54:40;;;;;;;;;;;19.10;88.60;;;;;;5;36014133;41267719;-88
2021/08/20 19:58:00;;;;;;;;;;;19.10;89.10;;;;;;5;36014134;41266699;-90
2021/08/20 20:01:14;;;;;;;;;;;19.00;90.20;;;;;;5;36014177;41266818;-88
2021/08/20 20:04:31;;;;;;;;;;;19.00;90.50;;;;;;5;36014153;41266886;-90
2021/08/20 20:07:50;;;;;;;;;;;18.90;90.80;;;;;;5;36014745;41266149;-87
2021/08/20 20:11:10;;;;;;;;;;;18.90;91.80;;;;;;5;36015103;41267085;-87
2021/08/20 20:14:24;;;;;;;;;;;18.90;92.40;;;;;;5;36014124;41266635;-92
2021/08/20 20:17:43;;;;;;;;;;;18.80;92.50;;;;;;5;36014586;42017334;-90
2021/08/20 20:21:02;;;;;;;;;;;18.80;92.90;;;;;;5;36014450;41266054;-87
2021/08/20 20:24:22;;;;;;;;;;;18.70;93.30;;;;;;5;36014165;41266537;-87
2021/08/20 20:27:37;;;;;;;;;;;18.70;93.60;;;;;;5;36014042;41265262;-87
2021/08/20 20:30:54;;;;;;;;;;;18.70;94.10;;;;;;5;36013440;41267385;-86
2021/08/20 20:34:13;;;;;;;;;;;18.60;94.50;;;;;;5;36017010;41266264;-87
2021/08/20 20:37:33;;;;;;;;;;;18.60;94.70;;;;;;5;36013380;41267142;-87
2021/08/20 20:40:47;;;;;;;;;;;18.60;95.10;;;;;;5;36014992;41266182;-88
2021/08/20 20:44:04;;;;;;;;;;;18.50;95.60;;;;;;5;36014329;41265578;-88
2021/08/20 20:47:24;;;;;;;;;;;18.50;95.80;;;;;;5;36014081;41266825;-87
2021/08/20 20:50:45;;;;;;;;;;;18.40;96.20;;;;;;5;36015482;42015805;-88